UNOO Airport Information

Runway Information
Runway 06 Length 9435 ft width 270 ft
Elevation 0 ft Threshold 0 ft Heading 77
Runway 24 Length 9435 ft Width 270 ft
Elevation 0 ft Threshold 0 ft Heading 257
Runway 07 Length 8202 ft width 148 ft
Elevation 311 ft Threshold 0 ft Heading 77
Runway 25 Length 8202 ft Width 148 ft
Elevation 293 ft Threshold 0 ft Heading 257
Runway 15 Length 2380 ft width 250 ft
Elevation 0 ft Threshold 0 ft Heading 165
Runway 33 Length 2380 ft Width 250 ft
Elevation 0 ft Threshold 0 ft Heading 345
Airport Frequencies
Type ATIS Name ATIS Frequency 126.4 MHZ
Type GND Name TAXIING Frequency 121.7 MHZ
Type RDR Name KRUG Frequency 119 MHZ
Type TWR Name START Frequency 119 MHZ
Airport Navaids
Type NDB Name Omsk Frequency 332 KHZ
Type NDB Name Omsk Frequency 332 KHZ
Airport Weather Information & NOTAM
ADDS - METARS form results

(1148 UTC 10 July 2020)
Data provider http://aviationweather.gov/metar/data/
 
METAR text: UNOO 101130Z 36006MPS 9999 BKN033 25/08 Q1007 R25/CLRD60 NOSIG RMK QFE747
Conditions at: UNOO (TSENTRALNY/OMSK , RU) observed 1130 UTC 10 July 2020
Temperature: 25.0°C (77°F)
Dewpoint: 8.0°C (46°F) [RH = 34%]
Pressure (altimeter): 29.73 inches Hg (1007.0 mb)
Winds: from the N (360 degrees) at 14 MPH (12 knots; 6.2 m/s)
Visibility: 6 or more miles (10+ km)
Ceiling: 3300 feet AGL
Clouds: broken clouds at 3300 feet AGL
Weather: no significant weather observed at this time

METAR text: UNOO 101100Z 36007MPS 9999 BKN033 25/08 Q1007 R25/CLRD60 NOSIG RMK QFE747
Conditions at: UNOO (TSENTRALNY/OMSK , RU) observed 1100 UTC 10 July 2020
Temperature: 25.0°C (77°F)
Dewpoint: 8.0°C (46°F) [RH = 34%]
Pressure (altimeter): 29.73 inches Hg (1007.0 mb)
Winds: from the N (360 degrees) at 16 MPH (14 knots; 7.2 m/s)
Visibility: 6 or more miles (10+ km)
Ceiling: 3300 feet AGL
Clouds: broken clouds at 3300 feet AGL
Weather: no significant weather observed at this time

Forecast for: UNOO (TSENTRALNY/OMSK , RU)
Text: TAF UNOO 101055Z 1012/1112 35008G14MPS 9999 BKN030
Forecast period: 1200 to 1500 UTC 10 July 2020
Forecast type: FROM: standard forecast or significant change
Winds: from the N (350 degrees) at 18 MPH (16 knots; 8.2 m/s)
gusting to 31 MPH (27 knots; 13.9 m/s)
Visibility: 6 or more miles 10+ km)
Ceiling: 3000 feet AGL
Clouds: broken clouds at 3000 feet AGL
Weather: no significant weather forecast for this period
Text: BECMG 1015/1017 34003G09MPS
Forecast period: 1500 UTC 10 July 2020 to 1200 UTC 11 July 2020
Forecast type: BECOMING: Conditions expected to become as follows by 1700 UTC 10 July 2020
Winds: from the NNW (340 degrees) at 7 MPH (6 knots; 3.1 m/s)
gusting to 20 MPH (17 knots; 8.7 m/s)
Visibility: 6 or more miles 10+ km)
Ceiling: 3000 feet AGL
Clouds: broken clouds at 3000 feet AGL
Weather: no significant weather forecast for this period